DA3MD TQPF-TIST
Flight info
| Callsign | DA3MD |
|---|---|
| Flight time | 0h 41m |
| Altitude | 14000 |
| Route | PJM B520 STT |
| Aircraft | C525/L-SDFGRWY/S |
Departure
| Time | 2026-05-04 14:28 |
|---|---|
| Airport | Clayton J. Lloyd International Airport (TQPF) |
Arrival
| Time | 2026-05-04 15:09 |
|---|---|
| Airport | Cyril E. King Airport (TIST) |
| Time | Latitude | Longitude | Altitude | Speed | Heading |
|---|---|---|---|---|---|
| 2026-05-04 14:06 | 18.20624 | -63.05598 | 115 ft | 0 kts | 92° |
| 2026-05-04 14:24 | 18.20624 | -63.05592 | 115 ft | 3 kts | 91° |
| 2026-05-04 14:24 | 18.20613 | -63.05542 | 110 ft | 12 kts | 135° |
| 2026-05-04 14:24 | 18.20518 | -63.05528 | 107 ft | 11 kts | 183° |
| 2026-05-04 14:25 | 18.20481 | -63.05582 | 107 ft | 9 kts | 269° |
| 2026-05-04 14:25 | 18.20481 | -63.05706 | 108 ft | 9 kts | 271° |
| 2026-05-04 14:25 | 18.20482 | -63.05800 | 108 ft | 14 kts | 270° |
| 2026-05-04 14:26 | 18.20483 | -63.05920 | 108 ft | 14 kts | 272° |
| 2026-05-04 14:26 | 18.20487 | -63.06026 | 107 ft | 13 kts | 271° |
| 2026-05-04 14:26 | 18.20483 | -63.06120 | 107 ft | 8 kts | 245° |
| 2026-05-04 14:26 | 18.20484 | -63.06154 | 107 ft | 4 kts | 49° |
| 2026-05-04 14:27 | 18.20487 | -63.05982 | 108 ft | 60 kts | 92° |
| 2026-05-04 14:27 | 18.20478 | -63.05376 | 109 ft | 122 kts | 91° |
| 2026-05-04 14:27 | 18.20463 | -63.04822 | 383 ft | 125 kts | 93° |
| 2026-05-04 14:27 | 18.20423 | -63.03696 | 462 ft | 167 kts | 91° |
| 2026-05-04 14:28 | 18.20416 | -63.02496 | 1251 ft | 153 kts | 91° |
| 2026-05-04 14:28 | 18.20117 | -63.01540 | 2121 ft | 133 kts | 123° |
| 2026-05-04 14:28 | 18.19446 | -63.00921 | 2904 ft | 122 kts | 146° |
| 2026-05-04 14:28 | 18.18742 | -63.00624 | 3641 ft | 103 kts | 159° |
| 2026-05-04 14:29 | 18.17237 | -63.01494 | 4357 ft | 147 kts | 224° |
| 2026-05-04 14:29 | 18.15570 | -63.03609 | 4967 ft | 218 kts | 226° |
| 2026-05-04 14:30 | 18.14505 | -63.04929 | 5309 ft | 248 kts | 226° |
| 2026-05-04 14:30 | 18.13331 | -63.06415 | 5809 ft | 269 kts | 229° |
| 2026-05-04 14:30 | 18.10978 | -63.09621 | 6931 ft | 292 kts | 230° |
| 2026-05-04 14:31 | 18.09688 | -63.11385 | 7531 ft | 301 kts | 230° |
| 2026-05-04 14:31 | 18.07314 | -63.15208 | 8704 ft | 313 kts | 243° |
| 2026-05-04 14:32 | 18.06963 | -63.19840 | 9885 ft | 298 kts | 272° |
| 2026-05-04 14:32 | 18.07432 | -63.21901 | 10408 ft | 283 kts | 300° |
| 2026-05-04 14:32 | 18.08591 | -63.23474 | 10971 ft | 269 kts | 312° |
| 2026-05-04 14:32 | 18.09822 | -63.24849 | 11506 ft | 257 kts | 315° |
| 2026-05-04 14:33 | 18.11060 | -63.26163 | 12056 ft | 245 kts | 315° |
| 2026-05-04 14:33 | 18.12224 | -63.27461 | 12593 ft | 234 kts | 303° |
| 2026-05-04 14:33 | 18.12717 | -63.28957 | 13130 ft | 219 kts | 279° |
| 2026-05-04 14:33 | 18.12847 | -63.30426 | 13627 ft | 206 kts | 262° |
| 2026-05-04 14:34 | 18.12499 | -63.31815 | 14179 ft | 190 kts | 251° |
| 2026-05-04 14:34 | 18.12109 | -63.33089 | 14544 ft | 187 kts | 253° |
| 2026-05-04 14:34 | 18.11773 | -63.34526 | 14448 ft | 211 kts | 259° |
| 2026-05-04 14:34 | 18.11556 | -63.36114 | 14406 ft | 229 kts | 264° |
| 2026-05-04 14:35 | 18.11440 | -63.37903 | 14160 ft | 255 kts | 267° |
| 2026-05-04 14:35 | 18.11413 | -63.39869 | 14038 ft | 271 kts | 270° |
| 2026-05-04 14:35 | 18.11451 | -63.41960 | 14001 ft | 282 kts | 271° |
| 2026-05-04 14:35 | 18.11529 | -63.44046 | 13993 ft | 290 kts | 272° |
| 2026-05-04 14:36 | 18.11636 | -63.46186 | 13992 ft | 296 kts | 272° |
| 2026-05-04 14:36 | 18.11765 | -63.48391 | 13989 ft | 302 kts | 273° |
| 2026-05-04 14:36 | 18.11900 | -63.50470 | 13988 ft | 306 kts | 273° |
| 2026-05-04 14:36 | 18.12057 | -63.52757 | 13985 ft | 309 kts | 274° |
| 2026-05-04 14:37 | 18.12224 | -63.55093 | 13985 ft | 312 kts | 274° |
| 2026-05-04 14:37 | 18.12398 | -63.57439 | 13985 ft | 314 kts | 274° |
| 2026-05-04 14:37 | 18.12572 | -63.59754 | 13984 ft | 316 kts | 274° |
| 2026-05-04 14:37 | 18.12744 | -63.62010 | 13983 ft | 317 kts | 274° |
| 2026-05-04 14:38 | 18.12929 | -63.64408 | 13981 ft | 318 kts | 274° |
| 2026-05-04 14:38 | 18.13132 | -63.66749 | 13979 ft | 320 kts | 277° |
| 2026-05-04 14:38 | 18.13493 | -63.69128 | 13983 ft | 320 kts | 279° |
| 2026-05-04 14:38 | 18.13905 | -63.71596 | 13983 ft | 321 kts | 279° |
| 2026-05-04 14:39 | 18.14304 | -63.73935 | 13981 ft | 321 kts | 279° |
| 2026-05-04 14:39 | 18.14707 | -63.76293 | 13983 ft | 322 kts | 279° |
| 2026-05-04 14:39 | 18.15102 | -63.78612 | 13982 ft | 322 kts | 279° |
| 2026-05-04 14:40 | 18.15892 | -63.83271 | 13983 ft | 323 kts | 279° |
| 2026-05-04 14:40 | 18.16283 | -63.85585 | 13983 ft | 323 kts | 279° |
| 2026-05-04 14:40 | 18.16675 | -63.87907 | 13983 ft | 324 kts | 279° |
| 2026-05-04 14:40 | 18.17067 | -63.90237 | 13983 ft | 324 kts | 279° |
| 2026-05-04 14:41 | 18.17480 | -63.92688 | 13984 ft | 324 kts | 279° |
| 2026-05-04 14:41 | 18.17889 | -63.95121 | 13982 ft | 324 kts | 279° |
| 2026-05-04 14:41 | 18.18673 | -63.99796 | 13983 ft | 324 kts | 279° |
| 2026-05-04 14:42 | 18.19452 | -64.04448 | 13981 ft | 324 kts | 279° |
| 2026-05-04 14:42 | 18.19844 | -64.06795 | 13982 ft | 324 kts | 279° |
| 2026-05-04 14:42 | 18.20233 | -64.09119 | 13984 ft | 324 kts | 279° |
| 2026-05-04 14:43 | 18.20633 | -64.11519 | 13982 ft | 324 kts | 279° |
| 2026-05-04 14:43 | 18.21032 | -64.13908 | 13984 ft | 324 kts | 279° |
| 2026-05-04 14:43 | 18.21426 | -64.16274 | 13984 ft | 324 kts | 279° |
| 2026-05-04 14:43 | 18.21814 | -64.18602 | 13984 ft | 324 kts | 279° |
| 2026-05-04 14:44 | 18.22213 | -64.20995 | 13983 ft | 324 kts | 279° |
| 2026-05-04 14:44 | 18.22603 | -64.23344 | 13983 ft | 324 kts | 279° |
| 2026-05-04 14:44 | 18.22989 | -64.25668 | 13981 ft | 324 kts | 279° |
| 2026-05-04 14:44 | 18.23379 | -64.28015 | 13977 ft | 323 kts | 279° |
| 2026-05-04 14:45 | 18.23766 | -64.30347 | 13981 ft | 323 kts | 279° |
| 2026-05-04 14:45 | 18.24160 | -64.32721 | 13979 ft | 323 kts | 279° |
| 2026-05-04 14:45 | 18.24539 | -64.35010 | 13979 ft | 323 kts | 279° |
| 2026-05-04 14:45 | 18.24925 | -64.37344 | 13978 ft | 323 kts | 279° |
| 2026-05-04 14:46 | 18.25307 | -64.39653 | 13977 ft | 323 kts | 279° |
| 2026-05-04 14:46 | 18.25696 | -64.42005 | 13996 ft | 323 kts | 279° |
| 2026-05-04 14:46 | 18.26073 | -64.44282 | 13974 ft | 323 kts | 279° |
| 2026-05-04 14:46 | 18.26455 | -64.46599 | 13983 ft | 322 kts | 279° |
| 2026-05-04 14:47 | 18.26837 | -64.48916 | 13988 ft | 323 kts | 279° |
| 2026-05-04 14:47 | 18.27226 | -64.51276 | 13980 ft | 322 kts | 279° |
| 2026-05-04 14:47 | 18.27595 | -64.53516 | 13982 ft | 322 kts | 279° |
| 2026-05-04 14:47 | 18.27970 | -64.55797 | 13991 ft | 322 kts | 279° |
| 2026-05-04 14:48 | 18.28351 | -64.58116 | 13983 ft | 322 kts | 279° |
| 2026-05-04 14:48 | 18.28740 | -64.60482 | 13991 ft | 322 kts | 279° |
| 2026-05-04 14:48 | 18.29111 | -64.62746 | 13987 ft | 323 kts | 279° |
| 2026-05-04 14:48 | 18.29494 | -64.65082 | 13996 ft | 323 kts | 279° |
| 2026-05-04 14:49 | 18.29879 | -64.67427 | 13985 ft | 323 kts | 278° |
| 2026-05-04 14:49 | 18.30286 | -64.69912 | 14001 ft | 323 kts | 278° |
| 2026-05-04 14:49 | 18.30693 | -64.72405 | 13981 ft | 324 kts | 279° |
| 2026-05-04 14:49 | 18.31075 | -64.74738 | 13964 ft | 323 kts | 278° |
| 2026-05-04 14:50 | 18.31474 | -64.77182 | 13980 ft | 323 kts | 278° |
| 2026-05-04 14:50 | 18.31861 | -64.79554 | 13990 ft | 323 kts | 278° |
| 2026-05-04 14:50 | 18.32243 | -64.81902 | 13987 ft | 323 kts | 278° |
| 2026-05-04 14:50 | 18.32623 | -64.84225 | 14006 ft | 323 kts | 278° |
| 2026-05-04 14:51 | 18.33025 | -64.86699 | 13995 ft | 323 kts | 279° |
| 2026-05-04 14:51 | 18.33404 | -64.89034 | 13981 ft | 323 kts | 278° |
| 2026-05-04 14:51 | 18.33783 | -64.91361 | 13967 ft | 323 kts | 279° |
| 2026-05-04 14:51 | 18.34186 | -64.93848 | 13971 ft | 322 kts | 278° |
| 2026-05-04 14:52 | 18.34574 | -64.96235 | 13982 ft | 322 kts | 279° |
| 2026-05-04 14:52 | 18.34952 | -64.98575 | 13983 ft | 322 kts | 278° |
| 2026-05-04 14:52 | 18.35323 | -65.00858 | 13985 ft | 322 kts | 278° |
| 2026-05-04 14:52 | 18.35400 | -65.03142 | 13981 ft | 321 kts | 260° |
| 2026-05-04 14:53 | 18.34935 | -65.05416 | 13986 ft | 321 kts | 259° |
| 2026-05-04 14:53 | 18.34547 | -65.07812 | 13979 ft | 321 kts | 259° |
| 2026-05-04 14:53 | 18.34164 | -65.10097 | 13986 ft | 321 kts | 259° |
| 2026-05-04 14:53 | 18.33771 | -65.12433 | 13964 ft | 323 kts | 259° |
| 2026-05-04 14:54 | 18.33380 | -65.14762 | 13932 ft | 323 kts | 259° |
| 2026-05-04 14:54 | 18.32980 | -65.17142 | 13888 ft | 324 kts | 259° |
| 2026-05-04 14:54 | 18.32598 | -65.19548 | 13865 ft | 325 kts | 261° |
| 2026-05-04 14:54 | 18.32359 | -65.21858 | 13824 ft | 308 kts | 263° |
| 2026-05-04 14:55 | 18.32179 | -65.24066 | 13785 ft | 293 kts | 264° |
| 2026-05-04 14:55 | 18.32030 | -65.26161 | 13964 ft | 272 kts | 265° |
| 2026-05-04 14:55 | 18.31891 | -65.28196 | 13598 ft | 277 kts | 265° |
| 2026-05-04 14:55 | 18.32146 | -65.30244 | 13204 ft | 283 kts | 291° |
| 2026-05-04 14:56 | 18.33351 | -65.31894 | 12854 ft | 287 kts | 321° |
| 2026-05-04 14:56 | 18.35210 | -65.32739 | 12505 ft | 288 kts | 351° |
| 2026-05-04 14:56 | 18.37165 | -65.32548 | 12158 ft | 283 kts | 20° |
| 2026-05-04 14:56 | 18.38820 | -65.31473 | 11813 ft | 278 kts | 44° |
| 2026-05-04 14:57 | 18.39823 | -65.29757 | 11452 ft | 273 kts | 74° |
| 2026-05-04 14:57 | 18.39967 | -65.27838 | 11106 ft | 270 kts | 98° |
| 2026-05-04 14:57 | 18.39304 | -65.25978 | 10666 ft | 271 kts | 120° |
| 2026-05-04 14:57 | 18.38203 | -65.24432 | 10200 ft | 266 kts | 131° |
| 2026-05-04 14:58 | 18.36855 | -65.23162 | 9733 ft | 261 kts | 139° |
| 2026-05-04 14:58 | 18.35428 | -65.22053 | 9389 ft | 245 kts | 144° |
| 2026-05-04 14:58 | 18.34078 | -65.21092 | 8896 ft | 227 kts | 143° |
| 2026-05-04 14:58 | 18.33287 | -65.20431 | 8559 ft | 217 kts | 134° |
| 2026-05-04 14:59 | 18.32519 | -65.18640 | 7923 ft | 201 kts | 95° |
| 2026-05-04 14:59 | 18.32636 | -65.17190 | 7406 ft | 197 kts | 70° |
| 2026-05-04 14:59 | 18.34946 | -65.16039 | 6451 ft | 208 kts | 352° |
| 2026-05-04 15:00 | 18.36177 | -65.16918 | 5955 ft | 216 kts | 309° |
| 2026-05-04 15:00 | 18.36645 | -65.18401 | 5495 ft | 214 kts | 274° |
| 2026-05-04 15:00 | 18.36682 | -65.19955 | 5026 ft | 212 kts | 268° |
| 2026-05-04 15:01 | 18.36597 | -65.23018 | 4072 ft | 210 kts | 266° |
| 2026-05-04 15:01 | 18.36515 | -65.24550 | 3583 ft | 208 kts | 257° |
| 2026-05-04 15:01 | 18.35786 | -65.25774 | 3093 ft | 195 kts | 213° |
| 2026-05-04 15:01 | 18.34557 | -65.26112 | 2790 ft | 168 kts | 165° |
| 2026-05-04 15:02 | 18.33607 | -65.25584 | 2753 ft | 142 kts | 149° |
| 2026-05-04 15:02 | 18.32629 | -65.25495 | 2728 ft | 125 kts | 161° |
| 2026-05-04 15:02 | 18.32140 | -65.24908 | 2721 ft | 121 kts | 94° |
| 2026-05-04 15:02 | 18.32262 | -65.23936 | 2888 ft | 146 kts | 85° |
| 2026-05-04 15:03 | 18.32421 | -65.22714 | 2843 ft | 180 kts | 85° |
| 2026-05-04 15:03 | 18.32591 | -65.21319 | 2821 ft | 201 kts | 86° |
| 2026-05-04 15:03 | 18.32730 | -65.19807 | 2808 ft | 215 kts | 85° |
| 2026-05-04 15:03 | 18.32914 | -65.18205 | 2718 ft | 212 kts | 85° |
| 2026-05-04 15:04 | 18.33086 | -65.16765 | 2446 ft | 182 kts | 85° |
| 2026-05-04 15:04 | 18.33227 | -65.15516 | 2161 ft | 161 kts | 86° |
| 2026-05-04 15:04 | 18.33318 | -65.14459 | 2133 ft | 131 kts | 88° |
| 2026-05-04 15:04 | 18.33392 | -65.13531 | 2062 ft | 118 kts | 88° |
| 2026-05-04 15:05 | 18.33461 | -65.12688 | 2052 ft | 110 kts | 88° |
| 2026-05-04 15:05 | 18.33527 | -65.11855 | 2162 ft | 121 kts | 88° |
| 2026-05-04 15:05 | 18.33600 | -65.10899 | 2082 ft | 135 kts | 88° |
| 2026-05-04 15:05 | 18.33661 | -65.09914 | 1988 ft | 136 kts | 90° |
| 2026-05-04 15:06 | 18.33635 | -65.08901 | 1871 ft | 134 kts | 96° |
| 2026-05-04 15:06 | 18.33563 | -65.07925 | 1756 ft | 136 kts | 94° |
| 2026-05-04 15:06 | 18.33522 | -65.06942 | 1647 ft | 136 kts | 94° |
| 2026-05-04 15:07 | 18.33450 | -65.04964 | 1546 ft | 124 kts | 93° |
| 2026-05-04 15:07 | 18.33452 | -65.04100 | 1488 ft | 117 kts | 90° |
| 2026-05-04 15:07 | 18.33518 | -65.03204 | 1210 ft | 122 kts | 88° |
| 2026-05-04 15:07 | 18.33557 | -65.02334 | 939 ft | 116 kts | 91° |
| 2026-05-04 15:08 | 18.33566 | -65.01474 | 678 ft | 110 kts | 92° |
| 2026-05-04 15:08 | 18.33583 | -65.00661 | 499 ft | 108 kts | 89° |
| 2026-05-04 15:08 | 18.33626 | -64.99877 | 335 ft | 108 kts | 91° |
| 2026-05-04 15:08 | 18.33653 | -64.99066 | 203 ft | 103 kts | 91° |
| 2026-05-04 15:09 | 18.33693 | -64.98250 | 42 ft | 104 kts | 91° |
| 2026-05-04 15:09 | 18.33715 | -64.97531 | 24 ft | 84 kts | 85° |
| 2026-05-04 15:09 | 18.33741 | -64.97072 | 26 ft | 40 kts | 91° |
| 2026-05-04 15:10 | 18.33794 | -64.96687 | 26 ft | 10 kts | 359° |
| 2026-05-04 15:10 | 18.33870 | -64.96689 | 26 ft | 8 kts | 357° |
| 2026-05-04 15:10 | 18.33911 | -64.96642 | 26 ft | 3 kts | 83° |
| 2026-05-04 15:11 | 18.33913 | -64.96628 | 27 ft | 0 kts | 88° |
| 2026-05-04 15:11 | 18.33913 | -64.96616 | 28 ft | 2 kts | 88° |
| 2026-05-04 15:11 | 18.33912 | -64.96600 | 28 ft | 2 kts | 115° |
| 2026-05-04 15:11 | 18.33900 | -64.96588 | 28 ft | 0 kts | 133° |
| 2026-05-04 15:12 | 18.33900 | -64.96587 | 28 ft | 0 kts | 105° |
| 2026-05-04 15:12 | 18.33900 | -64.96585 | 28 ft | 0 kts | 85° |
| 2026-05-04 15:12 | 18.33900 | -64.96584 | 28 ft | 0 kts | 73° |
| 2026-05-04 15:12 | 18.33902 | -64.96583 | 28 ft | 0 kts | 36° |
| 2026-05-04 15:13 | 18.33902 | -64.96582 | 29 ft | 0 kts | 35° |